TAF LFGA
METAR LFGA
LFGA 090930Z AUTO VRB02KT 9999 SCT041 OVC066 04/02 Q1009=
LFGA 090900Z AUTO VRB02KT CAVOK 03/02 Q1008=
LFGA 090830Z AUTO 23004KT 9999 FEW056 02/02 Q1008=
LFGA 090800Z AUTO VRB03KT CAVOK 01/01 Q1008=
LFGA 090730Z AUTO VRB03KT 9999 OVC056 02/02 Q1007=
WC LFGA
WS LFGA
WV LFGA